Time;durP1;ratioP1;P1;durP2;ratioP2;P2;SDS_P1;SDS_P2;PMS_P1;PMS_P2;Temp;Humidity;BMP_temperature;BMP_pressure;BME280_temperature;BME280_humidity;BME280_pressure;Samples;Min_cycle;Max_cycle;Signal;HPM_P1;HPM_P2
2021/10/03 00:00:23;;;;;;;17.13;11.95;;;;;;;14.15;nan;101036.38;4900422;29;20047;-47
2021/10/03 00:02:51;;;;;;;18.25;11.45;;;;;;;14.15;nan;101039.88;4899226;29;20040;-47
2021/10/03 00:05:18;;;;;;;19.40;12.02;;;;;;;14.08;nan;101031.25;4901766;29;20047;-49
2021/10/03 00:07:52;;;;;;;20.40;12.75;;;;;;;14.09;nan;101029.34;4900462;29;20036;-48
2021/10/03 00:10:19;;;;;;;22.30;12.70;;;;;;;14.06;nan;101028.00;4904842;29;20028;-48
2021/10/03 00:12:46;;;;;;;23.17;12.35;;;;;;;14.04;nan;101023.97;4899691;29;20460;-49
2021/10/03 00:15:14;;;;;;;21.17;12.52;;;;;;;14.03;nan;101025.84;4900795;29;20047;-48
2021/10/03 00:17:39;;;;;;;18.10;11.30;;;;;;;14.05;nan;101031.78;4889857;29;20040;-48
2021/10/03 00:20:08;;;;;;;20.38;12.05;;;;;;;14.04;nan;101019.38;4904007;29;20280;-48
2021/10/03 00:22:33;;;;;;;20.17;13.13;;;;;;;14.04;nan;101019.38;4899389;29;20784;-47
2021/10/03 00:24:59;;;;;;;20.23;12.20;;;;;;;14.05;nan;101017.50;4900665;29;20044;-47
2021/10/03 00:27:25;;;;;;;18.02;12.18;;;;;;;14.05;nan;101012.09;4899197;29;20111;-48
2021/10/03 00:29:51;;;;;;;19.73;11.70;;;;;;;14.01;nan;101006.44;4902601;29;20040;-48
2021/10/03 00:32:17;;;;;;;18.75;11.43;;;;;;;14.05;nan;101004.03;4901005;29;20031;-47
2021/10/03 00:34:43;;;;;;;19.67;10.85;;;;;;;14.04;nan;100997.81;4899716;29;20036;-49
2021/10/03 00:37:08;;;;;;;15.18;9.95;;;;;;;14.04;nan;101007.78;4902855;29;20072;-47
2021/10/03 00:39:34;;;;;;;17.35;10.77;;;;;;;14.00;nan;101003.97;4897833;29;20629;-47
2021/10/03 00:42:00;;;;;;;18.90;11.68;;;;;;;14.00;nan;100995.91;4898676;29;20403;-47
2021/10/03 00:44:25;;;;;;;20.58;11.60;;;;;;;14.01;nan;100984.09;4901441;29;20071;-47
2021/10/03 00:46:51;;;;;;;17.73;11.13;;;;;;;13.97;nan;100993.75;4896114;29;20029;-48
2021/10/03 00:49:17;;;;;;;19.73;10.98;;;;;;;13.94;nan;100987.00;4899521;29;20071;-48
2021/10/03 00:51:42;;;;;;;15.43;11.15;;;;;;;13.89;nan;100987.00;4895369;29;20068;-48
2021/10/03 00:54:08;;;;;;;16.10;10.40;;;;;;;13.91;nan;100982.16;4894582;29;20078;-49
2021/10/03 00:56:34;;;;;;;21.63;10.88;;;;;;;13.95;nan;100977.84;4894678;29;20099;-49
2021/10/03 00:59:00;;;;;;;16.20;11.02;;;;;;;13.84;nan;100981.59;4900375;29;20051;-48
2021/10/03 01:01:26;;;;;;;16.88;10.70;;;;;;;13.89;nan;100977.03;4894181;29;20032;-49
2021/10/03 01:03:52;;;;;;;16.77;10.95;;;;;;;13.91;nan;100987.53;4899754;29;20020;-48
2021/10/03 01:06:18;;;;;;;16.70;10.65;;;;;;;13.88;nan;100982.69;4898497;29;20032;-49
2021/10/03 01:08:43;;;;;;;17.13;9.73;;;;;;;13.86;nan;100982.13;4898647;29;20095;-47
2021/10/03 01:11:09;;;;;;;17.48;10.02;;;;;;;13.94;nan;100981.63;4897084;29;20144;-47
2021/10/03 01:13:35;;;;;;;19.77;10.77;;;;;;;13.88;nan;100983.50;4898248;29;20039;-47
2021/10/03 01:16:00;;;;;;;14.70;9.57;;;;;;;13.88;nan;100972.72;4898068;29;20048;-49
2021/10/03 01:18:26;;;;;;;15.18;9.63;;;;;;;13.91;nan;100966.00;4897967;29;20029;-48
2021/10/03 01:20:52;;;;;;;17.70;10.90;;;;;;;13.94;nan;100976.22;4892903;29;20078;-48
2021/10/03 01:23:18;;;;;;;14.23;9.55;;;;;;;13.95;nan;100963.56;4895247;29;20499;-48
2021/10/03 01:25:49;;;;;;;16.38;10.02;;;;;;;13.98;nan;100968.41;4897801;29;20033;-48
2021/10/03 01:28:17;;;;;;;14.40;9.50;;;;;;;13.97;nan;100956.84;4897515;29;20043;-48
2021/10/03 01:30:46;;;;;;;15.63;8.90;;;;;;;13.96;nan;100952.53;4880665;29;20160;-47
2021/10/03 01:33:12;;;;;;;16.65;10.50;;;;;;;14.01;nan;100952.56;4900164;29;20024;-51
2021/10/03 01:35:38;;;;;;;17.50;9.50;;;;;;;13.95;nan;100940.13;4894575;29;20371;-47
2021/10/03 01:38:05;;;;;;;15.02;10.13;;;;;;;13.96;nan;100963.31;4899042;29;20079;-47
2021/10/03 01:40:31;;;;;;;18.42;11.45;;;;;;;13.93;nan;100960.34;4897423;29;20115;-47
2021/10/03 01:42:58;;;;;;;15.13;8.95;;;;;;;13.81;nan;100958.66;4899246;29;20124;-48
2021/10/03 01:45:25;;;;;;;13.65;8.80;;;;;;;13.78;nan;100969.16;4900944;29;20029;-49
2021/10/03 01:48:03;;;;;;;15.68;9.48;;;;;;;13.74;nan;100958.13;4917021;29;20127;-47
2021/10/03 01:50:29;;;;;;;13.73;8.82;;;;;;;13.79;nan;100951.94;4898442;29;20037;-50
2021/10/03 01:52:55;;;;;;;13.80;8.68;;;;;;;13.71;nan;100947.88;4913912;29;20455;-48
2021/10/03 01:55:20;;;;;;;15.95;10.10;;;;;;;13.67;nan;100937.91;4896400;29;20040;-48
2021/10/03 01:57:46;;;;;;;11.40;8.95;;;;;;;13.68;nan;100947.59;4900937;29;20039;-49
2021/10/03 02:00:12;;;;;;;20.85;9.45;;;;;;;13.62;nan;100938.69;4894706;29;20039;-48
2021/10/03 02:02:37;;;;;;;13.23;8.90;;;;;;;13.53;nan;100946.47;4902387;29;20375;-48
2021/10/03 02:05:03;;;;;;;10.18;6.45;;;;;;;13.58;nan;100953.75;4904455;29;20044;-48
2021/10/03 02:07:29;;;;;;;14.07;8.93;;;;;;;13.62;nan;100935.97;4898931;29;20028;-49
2021/10/03 02:09:55;;;;;;;12.25;8.38;;;;;;;13.61;nan;100947.84;4904365;29;20020;-48
2021/10/03 02:12:21;;;;;;;13.70;8.07;;;;;;;13.60;nan;100949.72;4901409;29;20036;-47
2021/10/03 02:14:47;;;;;;;13.35;8.25;;;;;;;13.65;nan;100948.13;4904562;29;20403;-47
2021/10/03 02:17:12;;;;;;;12.98;8.70;;;;;;;13.61;nan;100945.94;4899590;29;20119;-50
2021/10/03 02:19:40;;;;;;;13.15;9.13;;;;;;;13.62;nan;100949.44;4899782;29;20032;-47
2021/10/03 02:22:08;;;;;;;14.40;8.57;;;;;;;13.53;nan;100957.22;4903258;29;20020;-48
2021/10/03 02:24:35;;;;;;;14.00;8.65;;;;;;;13.48;nan;100948.34;4915757;29;20597;-48
2021/10/03 02:27:01;;;;;;;10.95;7.72;;;;;;;13.45;nan;100946.13;4902855;29;20068;-48
2021/10/03 02:29:27;;;;;;;12.27;8.38;;;;;;;13.45;nan;100949.63;4896852;29;20146;-48
2021/10/03 02:31:54;;;;;;;11.82;7.90;;;;;;;13.46;nan;100950.44;4904543;29;20209;-48
2021/10/03 02:34:21;;;;;;;13.68;7.93;;;;;;;13.48;nan;100951.84;4903609;29;20040;-48
2021/10/03 02:36:47;;;;;;;11.30;8.98;;;;;;;13.52;nan;100952.13;4903351;29;20043;-47
2021/10/03 02:39:12;;;;;;;15.18;8.73;;;;;;;13.50;nan;100949.69;4905722;29;20446;-49
2021/10/03 02:41:38;;;;;;;11.38;8.48;;;;;;;13.66;nan;100944.38;4903547;29;20032;-47
2021/10/03 02:44:05;;;;;;;14.73;8.65;;;;;;;13.70;nan;100943.56;4899999;29;20031;-48
2021/10/03 02:46:32;;;;;;;12.63;8.88;;;;;;;13.72;nan;100937.91;4899998;29;20619;-47
2021/10/03 02:48:57;;;;;;;14.13;8.70;;;;;;;13.73;nan;100942.22;4902882;29;20040;-48
2021/10/03 02:51:25;;;;;;;15.70;8.77;;;;;;;13.74;nan;100947.34;4903402;29;20395;-48
2021/10/03 02:53:52;;;;;;;14.93;9.30;;;;;;;13.78;nan;100950.31;4901733;29;20231;-48
2021/10/03 02:56:20;;;;;;;13.63;9.00;;;;;;;13.79;nan;100952.75;4904359;29;20398;-48
2021/10/03 02:58:46;;;;;;;12.50;8.27;;;;;;;13.76;nan;100949.78;4903824;29;20051;-48
2021/10/03 03:01:12;;;;;;;14.02;8.55;;;;;;;13.76;nan;100941.69;4901496;29;20032;-48
2021/10/03 03:03:37;;;;;;;15.57;9.13;;;;;;;13.82;nan;100943.31;4904606;29;20080;-49
2021/10/03 03:06:04;;;;;;;12.93;8.68;;;;;;;13.84;nan;100939.31;4901718;29;20439;-48
2021/10/03 03:08:30;;;;;;;14.52;9.07;;;;;;;13.79;nan;100938.47;4902377;29;20032;-48
2021/10/03 03:10:55;;;;;;;18.00;8.85;;;;;;;13.79;nan;100933.91;4905940;29;20075;-47
2021/10/03 03:13:21;;;;;;;16.08;8.63;;;;;;;13.75;nan;100937.38;4901814;29;20036;-49
2021/10/03 03:15:46;;;;;;;14.25;8.10;;;;;;;13.79;nan;100930.38;4906009;29;20074;-48
2021/10/03 03:18:12;;;;;;;13.45;8.57;;;;;;;13.83;nan;100934.19;4907367;29;20079;-47
2021/10/03 03:20:38;;;;;;;14.05;8.48;;;;;;;13.77;nan;100927.16;4897708;29;20122;-47
2021/10/03 03:23:04;;;;;;;11.98;8.23;;;;;;;13.71;nan;100929.03;4900582;29;20431;-49
2021/10/03 03:25:29;;;;;;;12.13;8.60;;;;;;;13.80;nan;100932.00;4903201;29;20234;-48
2021/10/03 03:27:55;;;;;;;13.13;8.85;;;;;;;13.79;nan;100930.38;4902153;29;20024;-48
2021/10/03 03:30:21;;;;;;;13.05;8.82;;;;;;;13.74;nan;100930.38;4901047;29;20155;-48
2021/10/03 03:32:46;;;;;;;13.10;8.45;;;;;;;13.73;nan;100918.81;4902098;29;20148;-48
2021/10/03 03:35:12;;;;;;;11.15;8.30;;;;;;;13.72;nan;100913.69;4901318;29;20112;-48
2021/10/03 03:37:39;;;;;;;14.98;8.50;;;;;;;13.72;nan;100917.19;4903662;29;20024;-49
2021/10/03 03:40:08;;;;;;;13.07;8.45;;;;;;;13.72;nan;100914.50;4901738;29;20063;-48
2021/10/03 03:42:33;;;;;;;11.65;8.63;;;;;;;13.74;nan;100911.53;4900754;29;20028;-48
2021/10/03 03:44:59;;;;;;;9.27;7.80;;;;;;;13.74;nan;100908.84;4901089;29;20506;-48
2021/10/03 03:47:24;;;;;;;21.50;9.13;;;;;;;13.74;nan;100912.34;4900401;29;20115;-47
2021/10/03 03:49:51;;;;;;;10.48;7.80;;;;;;;13.74;nan;100904.25;4900908;29;20040;-49
2021/10/03 03:52:19;;;;;;;14.20;8.73;;;;;;;13.76;nan;100901.31;4899503;29;20016;-47
2021/10/03 03:54:45;;;;;;;15.65;8.63;;;;;;;13.72;nan;100903.72;4901609;29;20500;-48
2021/10/03 03:57:11;;;;;;;12.88;6.82;;;;;;;13.72;nan;100916.38;4902531;29;20039;-49
2021/10/03 03:59:37;;;;;;;15.98;8.88;;;;;;;13.67;nan;100905.59;4901980;29;20135;-49
2021/10/03 04:02:02;;;;;;;13.48;8.32;;;;;;;13.76;nan;100907.50;4903989;29;20052;-49
2021/10/03 04:04:28;;;;;;;12.43;8.45;;;;;;;13.72;nan;100905.59;4898441;29;20032;-47
2021/10/03 04:06:53;;;;;;;17.08;9.50;;;;;;;13.55;nan;100903.94;4901441;29;20031;-48
2021/10/03 04:09:19;;;;;;;16.45;9.55;;;;;;;13.56;nan;100905.56;4897320;29;20032;-49
2021/10/03 04:11:44;;;;;;;12.65;8.90;;;;;;;13.54;nan;100913.09;4900527;29;20021;-48
2021/10/03 04:14:10;;;;;;;11.23;8.13;;;;;;;13.58;nan;100907.97;4896827;29;20036;-48
2021/10/03 04:16:35;;;;;;;11.07;8.20;;;;;;;13.58;nan;100907.97;4903101;29;20039;-48
2021/10/03 04:19:01;;;;;;;15.57;8.90;;;;;;;13.64;nan;100906.09;4903406;29;20028;-48
2021/10/03 04:21:26;;;;;;;11.75;9.35;;;;;;;13.65;nan;100908.56;4901054;29;20028;-47
2021/10/03 04:23:51;;;;;;;12.30;8.95;;;;;;;13.60;nan;100900.44;4899620;29;20115;-48
2021/10/03 04:26:17;;;;;;;12.57;8.23;;;;;;;13.58;nan;100899.91;4897588;29;20021;-48
2021/10/03 04:28:42;;;;;;;15.07;9.32;;;;;;;13.61;nan;100897.47;4898765;29;20064;-49
2021/10/03 04:31:09;;;;;;;12.48;9.15;;;;;;;13.51;nan;100889.41;4895389;29;20484;-49
2021/10/03 04:33:35;;;;;;;12.82;8.93;;;;;;;13.54;nan;100888.06;4898128;29;20047;-47
2021/10/03 04:36:00;;;;;;;17.23;9.13;;;;;;;13.59;nan;100890.75;4890810;29;20032;-48
2021/10/03 04:38:26;;;;;;;12.35;9.77;;;;;;;13.50;nan;100886.97;4901435;29;20028;-49
2021/10/03 04:40:51;;;;;;;12.02;8.85;;;;;;;13.52;nan;100885.63;4897770;29;20554;-47
2021/10/03 04:43:17;;;;;;;14.32;9.63;;;;;;;13.45;nan;100890.44;4902191;29;20159;-48
2021/10/03 04:45:42;;;;;;;16.92;9.90;;;;;;;13.52;nan;100891.00;4898158;29;20059;-48
2021/10/03 04:48:08;;;;;;;14.68;9.13;;;;;;;13.49;nan;100891.53;4896492;29;20052;-48
2021/10/03 04:50:34;;;;;;;13.05;8.70;;;;;;;13.51;nan;100891.28;4899002;29;20047;-47
2021/10/03 04:52:59;;;;;;;12.88;9.35;;;;;;;13.57;nan;100890.22;4901211;29;20103;-47
2021/10/03 04:55:25;;;;;;;16.65;9.38;;;;;;;13.49;nan;100890.72;4897437;29;20066;-49
2021/10/03 04:57:50;;;;;;;14.88;9.50;;;;;;;13.46;nan;100899.31;4900173;29;20043;-47
2021/10/03 05:00:16;;;;;;;14.65;9.00;;;;;;;13.49;nan;100907.69;4893783;29;20063;-48
2021/10/03 05:02:42;;;;;;;13.25;8.55;;;;;;;13.54;nan;100902.31;4901572;29;20505;-48
2021/10/03 05:05:08;;;;;;;14.25;9.50;;;;;;;13.52;nan;100898.28;4899154;29;20052;-48
2021/10/03 05:07:33;;;;;;;13.38;9.38;;;;;;;13.48;nan;100900.69;4898609;29;20119;-49
2021/10/03 05:10:00;;;;;;;15.15;9.38;;;;;;;13.59;nan;100913.09;4897113;29;20115;-49
2021/10/03 05:12:26;;;;;;;14.65;9.15;;;;;;;13.51;nan;100919.00;4894741;29;20519;-48
2021/10/03 05:14:51;;;;;;;12.18;8.65;;;;;;;13.49;nan;100920.34;4895795;29;20316;-49
2021/10/03 05:17:17;;;;;;;14.35;10.15;;;;;;;13.57;nan;100917.94;4900917;29;20107;-47
2021/10/03 05:19:42;;;;;;;14.55;9.70;;;;;;;13.53;nan;100913.34;4894375;29;20088;-48
2021/10/03 05:22:08;;;;;;;13.88;9.85;;;;;;;13.65;nan;100913.94;4894896;29;20025;-48
2021/10/03 05:24:33;;;;;;;13.45;9.40;;;;;;;13.64;nan;100916.88;4896251;29;20158;-48
2021/10/03 05:26:59;;;;;;;14.40;9.63;;;;;;;13.61;nan;100916.34;4905770;29;20051;-48
2021/10/03 05:29:25;;;;;;;12.68;10.07;;;;;;;13.66;nan;100904.78;4897975;29;20057;-50
2021/10/03 05:31:51;;;;;;;15.63;9.40;;;;;;;13.71;nan;100906.69;4912667;29;20153;-48
2021/10/03 05:34:17;;;;;;;14.20;9.77;;;;;;;13.75;nan;100910.47;4899261;29;20036;-49
2021/10/03 05:36:42;;;;;;;14.95;9.82;;;;;;;13.71;nan;100906.69;4902954;29;20589;-48
2021/10/03 05:39:08;;;;;;;13.00;10.25;;;;;;;13.76;nan;100915.56;4909005;29;20451;-47
2021/10/03 05:41:33;;;;;;;13.98;9.70;;;;;;;13.82;nan;100908.31;4899827;29;20032;-47
2021/10/03 05:43:59;;;;;;;15.10;9.52;;;;;;;13.83;nan;100912.66;4901457;29;20076;-47
2021/10/03 05:46:24;;;;;;;14.90;10.07;;;;;;;13.91;nan;100912.13;4907517;29;20032;-50
2021/10/03 05:48:50;;;;;;;15.63;9.48;;;;;;;13.95;nan;100918.59;4897870;29;20060;-48
2021/10/03 05:51:16;;;;;;;13.45;10.10;;;;;;;13.97;nan;100913.75;4903000;29;20039;-48
2021/10/03 05:53:41;;;;;;;13.82;9.35;;;;;;;14.02;nan;100913.78;4898860;29;20035;-48
2021/10/03 05:56:07;;;;;;;11.82;9.20;;;;;;;14.04;nan;100919.69;4904090;29;20039;-48
2021/10/03 05:58:33;;;;;;;13.13;9.65;;;;;;;14.05;nan;100921.31;4897092;29;20039;-49
2021/10/03 06:00:59;;;;;;;13.13;10.18;;;;;;;14.11;nan;100908.66;4905262;29;20035;-48
2021/10/03 06:03:24;;;;;;;18.02;8.57;;;;;;;14.11;nan;100903.25;4904048;29;20067;-48
2021/10/03 06:05:50;;;;;;;14.27;10.32;;;;;;;14.18;nan;100899.25;4902307;29;20395;-49
2021/10/03 06:08:15;;;;;;;14.88;10.60;;;;;;;14.02;nan;100907.56;4898132;29;20072;-51
2021/10/03 06:10:42;;;;;;;15.63;10.15;;;;;;;14.08;nan;100910.00;4903211;29;20025;-47
2021/10/03 06:13:08;;;;;;;15.27;9.95;;;;;;;14.05;nan;100915.13;4898575;29;20064;-48
2021/10/03 06:15:35;;;;;;;16.92;10.15;;;;;;;14.10;nan;100915.13;4904550;29;20501;-49
2021/10/03 06:18:01;;;;;;;13.40;9.57;;;;;;;14.05;nan;100913.22;4901115;29;20103;-47
2021/10/03 06:20:27;;;;;;;18.90;10.27;;;;;;;14.03;nan;100931.56;4902437;29;20028;-48
2021/10/03 06:22:52;;;;;;;14.48;9.35;;;;;;;14.03;nan;100928.06;4900106;29;20028;-48
2021/10/03 06:25:18;;;;;;;18.13;9.73;;;;;;;13.96;nan;100920.19;4902254;29;20050;-47
2021/10/03 06:27:43;;;;;;;23.30;10.40;;;;;;;14.09;nan;100918.88;4900401;29;20084;-47
2021/10/03 06:30:10;;;;;;;12.88;10.18;;;;;;;14.09;nan;100917.00;4908820;29;20103;-49
2021/10/03 06:32:36;;;;;;;16.35;10.45;;;;;;;14.18;nan;100915.41;4900751;29;20032;-47
2021/10/03 06:35:02;;;;;;;18.25;10.43;;;;;;;14.24;nan;100923.50;4907797;29;20062;-49
2021/10/03 06:37:28;;;;;;;15.40;10.25;;;;;;;14.15;nan;100915.13;4914401;29;20057;-47
2021/10/03 06:39:53;;;;;;;18.48;10.48;;;;;;;14.23;nan;100924.56;4899523;29;20115;-48
2021/10/03 06:42:19;;;;;;;13.50;10.30;;;;;;;14.36;nan;100914.09;4899548;29;20076;-48
2021/10/03 06:44:44;;;;;;;15.57;10.77;;;;;;;14.42;nan;100917.59;4903692;29;20039;-48
2021/10/03 06:47:11;;;;;;;17.35;11.05;;;;;;;14.44;nan;100927.03;4900256;29;20056;-49
2021/10/03 06:49:42;;;;;;;16.48;9.90;;;;;;;14.55;nan;100921.66;4900782;29;20119;-48
2021/10/03 06:52:09;;;;;;;15.30;10.20;;;;;;;14.56;nan;100918.69;4905770;29;20056;-48
2021/10/03 06:54:35;;;;;;;16.35;10.52;;;;;;;14.71;nan;100905.19;4900650;29;20125;-50
2021/10/03 06:57:01;;;;;;;13.77;9.95;;;;;;;14.77;nan;100917.59;4901976;29;20091;-48
2021/10/03 06:59:27;;;;;;;15.15;10.13;;;;;;;14.76;nan;100924.06;4896887;29;20119;-48
2021/10/03 07:01:53;;;;;;;14.38;9.95;;;;;;;14.79;nan;100918.13;4896423;29;20040;-48
2021/10/03 07:04:19;;;;;;;14.00;10.23;;;;;;;14.95;nan;100923.50;4900133;29;20061;-48
2021/10/03 07:06:45;;;;;;;17.80;11.18;;;;;;;15.04;nan;100921.84;4904789;29;20150;-48
2021/10/03 07:09:10;;;;;;;14.70;10.43;;;;;;;15.07;nan;100924.00;4896099;29;20107;-47
2021/10/03 07:11:36;;;;;;;15.45;10.52;;;;;;;15.16;nan;100929.66;4903552;29;20076;-48
2021/10/03 07:14:01;;;;;;;14.73;11.35;;;;;;;15.20;nan;100926.13;4911216;29;20199;-49
2021/10/03 07:16:27;;;;;;;18.67;10.65;;;;;;;15.27;nan;100933.97;4900120;29;20058;-50
2021/10/03 07:18:52;;;;;;;17.83;10.40;;;;;;;15.42;nan;100918.50;4898537;29;20392;-48
2021/10/03 07:21:19;;;;;;;16.80;10.07;;;;;;;15.50;nan;100917.13;4900481;29;20028;-48
2021/10/03 07:23:44;;;;;;;17.48;10.93;;;;;;;15.35;nan;100917.19;4895792;29;20036;-48
2021/10/03 07:26:11;;;;;;;14.45;9.57;;;;;;;15.33;nan;100916.66;4897270;29;20262;-48
2021/10/03 07:28:36;;;;;;;17.70;10.63;;;;;;;15.25;nan;100920.72;4893013;29;20037;-48
2021/10/03 07:31:03;;;;;;;13.30;10.55;;;;;;;15.29;nan;100913.72;4898371;29;20099;-49
2021/10/03 07:33:29;;;;;;;15.93;10.48;;;;;;;15.31;nan;100930.44;4898538;29;20550;-48
2021/10/03 07:35:55;;;;;;;16.50;10.40;;;;;;;15.37;nan;100923.13;4896832;29;20033;-47
2021/10/03 07:38:20;;;;;;;17.73;11.13;;;;;;;15.43;nan;100930.91;4900776;29;20699;-50
2021/10/03 07:40:46;;;;;;;16.42;10.48;;;;;;;15.46;nan;100926.88;4902031;29;20151;-48
2021/10/03 07:43:12;;;;;;;15.07;10.38;;;;;;;15.59;nan;100926.28;4906095;29;20111;-48
2021/10/03 07:45:38;;;;;;;15.45;10.15;;;;;;;15.54;nan;100923.59;4909700;29;20044;-47
2021/10/03 07:48:03;;;;;;;19.45;10.70;;;;;;;15.80;nan;100920.78;4904536;29;20421;-47
2021/10/03 07:50:29;;;;;;;16.92;10.20;;;;;;;16.10;nan;100923.31;4902530;29;20091;-48
2021/10/03 07:52:55;;;;;;;17.23;10.55;;;;;;;16.26;nan;100916.72;4908295;29;20047;-48
2021/10/03 07:55:21;;;;;;;16.08;10.95;;;;;;;16.21;nan;100921.38;4905844;29;20031;-48
2021/10/03 07:57:46;;;;;;;17.45;9.75;;;;;;;16.42;nan;100911.19;4907794;29;20545;-47
2021/10/03 08:00:13;;;;;;;15.52;9.75;;;;;;;16.52;nan;100905.72;4906928;29;20130;-48
2021/10/03 08:02:38;;;;;;;16.33;10.27;;;;;;;16.82;nan;100905.44;4907468;29;20035;-48
2021/10/03 08:05:05;;;;;;;15.05;9.30;;;;;;;16.94;nan;100907.78;4908812;29;20091;-51
2021/10/03 08:07:32;;;;;;;15.60;10.43;;;;;;;16.86;nan;100909.19;4910864;29;20036;-47
2021/10/03 08:09:58;;;;;;;14.30;10.32;;;;;;;16.86;nan;100911.91;4907865;29;20515;-50
2021/10/03 08:12:23;;;;;;;16.45;10.18;;;;;;;16.96;nan;100911.00;4910803;29;20310;-48
2021/10/03 08:14:49;;;;;;;13.65;8.95;;;;;;;16.93;nan;100914.28;4899242;29;20024;-48
2021/10/03 08:17:14;;;;;;;13.73;9.50;;;;;;;17.20;nan;100909.09;4903450;29;20028;-48
2021/10/03 08:19:40;;;;;;;14.27;9.55;;;;;;;17.13;nan;100908.66;4894287;29;20033;-48
2021/10/03 08:22:12;;;;;;;15.25;9.68;;;;;;;17.08;nan;100908.72;4896941;29;20120;-48
2021/10/03 08:24:38;;;;;;;14.30;9.75;;;;;;;17.05;nan;100908.47;4894980;29;20086;-48
2021/10/03 08:27:03;;;;;;;11.25;9.43;;;;;;;17.21;nan;100905.31;4906593;29;20060;-51
2021/10/03 08:29:29;;;;;;;13.77;9.55;;;;;;;17.29;nan;100892.25;4904692;29;20024;-48
2021/10/03 08:31:55;;;;;;;14.25;10.10;;;;;;;17.38;nan;100885.88;4906926;29;20046;-47
2021/10/03 08:34:21;;;;;;;17.55;9.05;;;;;;;17.32;nan;100888.94;4903329;29;20028;-50
2021/10/03 08:36:46;;;;;;;18.02;10.52;;;;;;;17.28;nan;100877.91;4907130;29;20032;-47
2021/10/03 08:39:12;;;;;;;15.05;10.18;;;;;;;17.20;nan;100883.94;4907767;29;20038;-51
2021/10/03 08:41:38;;;;;;;13.23;9.48;;;;;;;17.04;nan;100882.50;4906712;29;20090;-48
2021/10/03 08:44:04;;;;;;;12.43;8.88;;;;;;;17.05;nan;100884.91;4906725;29;20071;-48
2021/10/03 08:46:29;;;;;;;15.70;9.68;;;;;;;17.16;nan;100883.72;4908721;29;20200;-48
2021/10/03 08:48:56;;;;;;;15.82;9.52;;;;;;;17.27;nan;100879.00;4906518;29;20471;-49
2021/10/03 08:51:23;;;;;;;14.82;9.48;;;;;;;17.45;nan;100874.72;4902209;29;20036;-48
2021/10/03 08:53:48;;;;;;;14.77;9.57;;;;;;;17.43;nan;100866.88;4910188;29;20036;-51
2021/10/03 08:56:15;;;;;;;13.15;8.52;;;;;;;17.70;nan;100868.16;4906168;29;20028;-50
2021/10/03 08:58:40;;;;;;;19.42;10.27;;;;;;;17.94;nan;100873.50;4908812;29;20032;-49
2021/10/03 09:01:07;;;;;;;11.30;8.55;;;;;;;17.81;nan;100896.75;4906422;29;20049;-48
2021/10/03 09:03:33;;;;;;;14.60;9.57;;;;;;;17.67;nan;100882.28;4900770;29;20031;-49
2021/10/03 09:05:59;;;;;;;17.20;9.88;;;;;;;17.85;nan;100903.19;4910258;29;20044;-51
2021/10/03 09:08:30;;;;;;;13.43;9.13;;;;;;;17.88;nan;100893.66;4905119;29;20129;-48
2021/10/03 09:11:03;;;;;;;15.88;9.25;;;;;;;18.15;nan;100877.53;4908900;29;20417;-49
2021/10/03 09:13:32;;;;;;;14.27;9.43;;;;;;;18.41;nan;100876.00;4902705;29;20542;-47
2021/10/03 09:16:04;;;;;;;12.32;9.48;;;;;;;18.54;nan;100874.44;4906207;29;20063;-48
2021/10/03 09:18:39;;;;;;;13.55;9.43;;;;;;;18.59;nan;100877.06;4906875;29;20036;-47
2021/10/03 09:21:05;;;;;;;15.55;9.70;;;;;;;18.69;nan;100878.81;4905665;29;20032;-49
2021/10/03 09:23:30;;;;;;;16.35;11.73;;;;;;;18.69;nan;100881.53;4906520;29;20086;-49
2021/10/03 09:25:56;;;;;;;26.75;16.80;;;;;;;18.83;nan;100876.91;4905056;29;20466;-47
2021/10/03 09:28:24;;;;;;;15.95;10.40;;;;;;;18.90;nan;100868.41;4904673;29;20436;-48
2021/10/03 09:31:08;;;;;;;17.27;11.73;;;;;;;19.02;nan;100872.19;4919392;29;20055;-48
2021/10/03 09:33:46;;;;;;;21.20;13.15;;;;;;;19.27;nan;100876.34;4908296;29;20566;-48
2021/10/03 09:36:13;;;;;;;15.80;11.85;;;;;;;19.47;nan;100866.16;4905857;29;20046;-50
2021/10/03 09:38:46;;;;;;;18.88;12.65;;;;;;;19.56;nan;100870.56;4905956;29;20112;-48
2021/10/03 09:41:12;;;;;;;13.10;9.27;;;;;;;19.57;nan;100863.25;4906220;29;20537;-48
2021/10/03 09:43:54;;;;;;;14.13;10.20;;;;;;;19.53;nan;100868.44;4909211;29;20039;-48
2021/10/03 09:46:33;;;;;;;19.65;11.02;;;;;;;19.62;nan;100865.84;4895790;29;20028;-48
2021/10/03 09:49:00;;;;;;;13.13;9.63;;;;;;;19.53;nan;100873.88;4903715;29;20043;-52
2021/10/03 09:51:26;;;;;;;18.73;12.07;;;;;;;19.50;nan;100874.50;4906104;29;20028;-48
2021/10/03 09:53:52;;;;;;;18.35;12.73;;;;;;;19.46;nan;100878.13;4912584;29;20513;-48
2021/10/03 09:56:18;;;;;;;18.90;10.50;;;;;;;19.73;nan;100869.13;4908823;29;20555;-51
2021/10/03 09:58:46;;;;;;;12.68;9.77;;;;;;;20.02;nan;100874.19;4910623;29;20036;-48
2021/10/03 10:01:13;;;;;;;17.65;10.00;;;;;;;19.95;nan;100874.63;4909612;29;20070;-50
2021/10/03 10:03:38;;;;;;;13.27;9.25;;;;;;;20.01;nan;100875.31;4906860;29;20028;-48
2021/10/03 10:06:05;;;;;;;12.88;9.23;;;;;;;19.64;nan;100871.78;4910649;29;20204;-48
2021/10/03 10:08:33;;;;;;;10.52;8.40;;;;;;;19.83;nan;100880.59;4908992;29;20305;-51
2021/10/03 10:11:33;;;;;;;13.80;8.65;;;;;;;20.08;nan;100872.94;4906592;29;20310;-48
2021/10/03 10:14:02;;;;;;;9.82;7.82;;;;;;;19.97;nan;100864.25;4874816;29;20052;-50
2021/10/03 10:16:32;;;;;;;12.25;7.88;;;;;;;20.08;nan;100873.75;4923726;29;20028;-48
2021/10/03 10:19:26;;;;;;;13.40;8.80;;;;;;;20.28;nan;100866.19;4910846;29;20144;-48
2021/10/03 10:22:20;;;;;;;10.77;8.25;;;;;;;20.24;nan;100876.91;4912835;29;20028;-48
2021/10/03 10:24:51;;;;;;;12.20;8.20;;;;;;;20.05;nan;100868.94;4914358;29;20450;-50
2021/10/03 10:27:29;;;;;;;13.43;9.02;;;;;;;20.11;nan;100875.06;4904110;29;20070;-49
2021/10/03 10:30:00;;;;;;;13.32;9.07;;;;;;;20.17;nan;100858.31;4900771;29;20036;-49
2021/10/03 10:32:28;;;;;;;12.57;8.45;;;;;;;20.14;nan;100860.84;4897468;29;20036;-48
2021/10/03 10:35:09;;;;;;;10.82;8.02;;;;;;;20.22;nan;100855.47;4906269;29;20043;-49
2021/10/03 10:37:50;;;;;;;10.82;8.80;;;;;;;20.33;nan;100847.06;4915138;29;20144;-48
2021/10/03 10:40:35;;;;;;;11.25;9.05;;;;;;;20.34;nan;100859.53;4909594;29;20123;-52
2021/10/03 10:43:03;;;;;;;10.48;8.30;;;;;;;20.29;nan;100862.38;4902368;29;20044;-49
2021/10/03 10:45:41;;;;;;;12.38;8.82;;;;;;;20.44;nan;100859.28;4903627;29;20483;-48
2021/10/03 10:48:06;;;;;;;13.50;9.10;;;;;;;20.45;nan;100866.34;4909725;29;20040;-49
2021/10/03 10:50:33;;;;;;;13.88;8.75;;;;;;;20.42;nan;100856.88;4907066;29;20028;-50
2021/10/03 10:53:28;;;;;;;11.65;8.95;;;;;;;20.58;nan;100849.13;4911053;29;20067;-50
2021/10/03 10:56:15;;;;;;;;;;;;;;;20.58;nan;100846.41;4911848;29;20059;-49
2021/10/03 10:58:53;;;;;;;11.50;8.90;;;;;;;21.00;nan;100844.19;4912472;29;20268;-48
2021/10/03 11:01:18;;;;;;;10.98;8.50;;;;;;;21.25;nan;100848.94;4900512;29;20443;-49
2021/10/03 11:03:44;;;;;;;13.07;8.55;;;;;;;21.28;nan;100842.84;4913247;29;20422;-48
2021/10/03 11:06:34;;;;;;;9.85;8.30;;;;;;;21.52;nan;100839.69;4898038;29;20090;-49
2021/10/03 11:09:04;;;;;;;11.60;8.07;;;;;;;21.82;nan;100843.41;4905864;29;20067;-51
2021/10/03 11:11:35;;;;;;;11.48;9.00;;;;;;;21.71;nan;100847.56;4896644;29;20028;-51
2021/10/03 11:14:17;;;;;;;13.43;8.88;;;;;;;21.87;nan;100856.06;4906919;29;20028;-51
2021/10/03 11:16:47;;;;;;;11.48;7.53;;;;;;;21.56;nan;100845.31;4907418;29;20647;-50
2021/10/03 11:19:23;;;;;;;12.73;8.63;;;;;;;21.52;nan;100841.59;4905609;29;20478;-48
2021/10/03 11:21:53;;;;;;;11.00;8.60;;;;;;;21.51;nan;100840.00;4904927;29;20043;-49
2021/10/03 11:24:23;;;;;;;14.35;7.90;;;;;;;21.29;nan;100852.63;4906077;29;20162;-51
2021/10/03 11:26:54;;;;;;;11.32;8.40;;;;;;;21.42;nan;100850.91;4889523;29;20039;-49
2021/10/03 11:29:22;;;;;;;10.57;8.23;;;;;;;21.26;nan;100847.03;4906530;29;20042;-49
2021/10/03 11:31:50;;;;;;;10.85;8.25;;;;;;;21.28;nan;100853.75;4905724;29;20032;-48